0NY6 weather

New York State Police Heliport
Auburn, New York, United States

Public forecast

Using degrees Fahrenheit for public forecast. Weather courtesy of forecast.io.

Closest aviation weather report (METAR) to New York State Police Heliport

Closest report is Syracuse Hancock International Airport, 24.9 nm (46.1 km) ENE. Retrieved 2019/11/13 20:54 UTC (26 minutes ago):

KSYR 132054Z 24005KT 10SM FEW033 SCT180 SCT250 M06/M14 A3039 RMK AO2 SLP296 T10561139 50002

Closest aviation forecast (TAF) to New York State Police Heliport

Closest forecast is Syracuse Hancock International Airport, 24.9 nm (46.1 km) ENE. Retrieved 2019/11/13 18:36 UTC (3 hours ago):

TAF KSYR 131733Z 1318/1418 28005KT P6SM SCT040 FM132200 VRB04KT P6SM BKN150 FM140300 12007KT P6SM BKN080 FM141400 18007G15KT P6SM BKN080